createdAt,value
2018-11-29T00:00:45.025Z,99056.84
2018-11-29T00:02:57.269Z,99056.48
2018-11-29T00:05:09.486Z,99059.05
2018-11-29T00:07:21.701Z,99056.48
2018-11-29T00:09:37.849Z,99048.25
2018-11-29T00:11:50.012Z,99049.09
2018-11-29T00:14:02.377Z,99046.13
2018-11-29T00:16:14.603Z,99045.30
2018-11-29T00:18:26.798Z,99043.22
2018-11-29T00:20:38.962Z,99049.09
2018-11-29T00:22:51.311Z,99044.35
2018-11-29T00:25:03.899Z,99036.70
2018-11-29T00:27:16.156Z,99045.23
2018-11-29T00:29:28.364Z,99037.23
2018-11-29T00:31:40.551Z,99044.45
2018-11-29T00:33:52.710Z,99048.30
2018-11-29T00:36:04.996Z,99048.64
2018-11-29T00:38:17.159Z,99044.44
2018-11-29T00:40:29.359Z,99042.36
2018-11-29T00:42:41.561Z,99038.34
2018-11-29T00:44:53.752Z,99035.81
2018-11-29T00:47:05.958Z,99037.16
2018-11-29T00:49:18.147Z,99043.56
2018-11-29T00:51:30.396Z,99035.86
2018-11-29T00:53:42.565Z,99042.28
2018-11-29T00:55:54.759Z,99041.84
2018-11-29T00:58:06.932Z,99039.13
2018-11-29T01:00:21.030Z,99044.25
2018-11-29T01:02:33.218Z,99045.84
2018-11-29T01:04:45.401Z,99046.83
2018-11-29T01:06:57.600Z,99045.06
2018-11-29T01:09:09.844Z,99043.52
2018-11-29T01:11:22.109Z,99038.34
2018-11-29T01:13:34.320Z,99038.34
2018-11-29T01:15:46.517Z,99037.45
2018-11-29T01:17:58.714Z,99032.36
2018-11-29T01:20:12.962Z,99019.13
2018-11-29T01:22:25.185Z,99013.06
2018-11-29T01:24:37.398Z,99002.09
2018-11-29T01:26:49.594Z,99009.39
2018-11-29T01:29:01.849Z,99020.11
2018-11-29T01:31:14.039Z,99021.34
2018-11-29T01:33:26.213Z,99018.63
2018-11-29T01:35:38.396Z,99021.14
2018-11-29T01:37:50.626Z,99023.27
2018-11-29T01:40:02.898Z,99026.09
2018-11-29T01:42:15.077Z,99025.30
2018-11-29T01:44:27.274Z,99031.14
2018-11-29T01:46:39.479Z,99034.58
2018-11-29T01:48:51.693Z,99052.52
2018-11-29T01:51:04.116Z,99046.94
2018-11-29T01:53:16.312Z,99044.32
2018-11-29T01:55:28.506Z,99034.39
2018-11-29T01:57:40.763Z,99023.77
2018-11-29T01:59:52.995Z,99019.97
2018-11-29T02:02:05.481Z,99022.59
2018-11-29T02:04:17.721Z,99020.86
2018-11-29T02:06:29.930Z,99015.92
2018-11-29T02:08:42.122Z,99014.64
2018-11-29T02:10:54.421Z,99005.95
2018-11-29T02:13:06.738Z,99006.29
2018-11-29T02:15:18.929Z,98998.88
2018-11-29T02:17:31.152Z,98997.66
2018-11-29T02:19:43.308Z,98998.14
2018-11-29T02:21:55.509Z,98989.51
2018-11-29T02:24:07.674Z,98988.18
2018-11-29T02:26:19.932Z,98991.47
2018-11-29T02:28:32.196Z,98986.00
2018-11-29T02:30:44.364Z,98983.82
2018-11-29T02:32:56.540Z,98978.20
2018-11-29T02:35:08.729Z,98979.03
2018-11-29T02:37:20.890Z,98965.35
2018-11-29T02:39:33.193Z,98977.66
2018-11-29T02:41:45.387Z,98979.03
2018-11-29T02:43:57.562Z,98974.78
2018-11-29T02:46:09.761Z,98971.77
2018-11-29T02:48:21.923Z,98979.08
2018-11-29T02:50:34.097Z,98971.08
2018-11-29T02:52:46.279Z,98970.59
2018-11-29T02:54:58.444Z,98960.87
2018-11-29T02:57:10.630Z,98968.62
2018-11-29T02:59:22.780Z,98960.53
2018-11-29T03:01:35.008Z,98953.67
2018-11-29T03:03:47.208Z,98958.99
2018-11-29T03:05:59.441Z,98954.71
2018-11-29T03:08:11.618Z,98957.17
2018-11-29T03:10:25.546Z,98944.19
2018-11-29T03:12:37.772Z,98942.16
2018-11-29T03:14:49.965Z,98953.33
2018-11-29T03:17:02.194Z,98961.56
2018-11-29T03:19:14.362Z,98973.16
2018-11-29T03:21:26.532Z,98971.38
2018-11-29T03:23:38.701Z,98968.42
2018-11-29T03:25:50.900Z,98961.12
2018-11-29T03:28:03.115Z,98956.53
2018-11-29T03:30:16.444Z,98959.09
2018-11-29T03:32:28.627Z,98962.00
2018-11-29T03:34:40.796Z,98950.86
2018-11-29T03:36:52.995Z,98943.44
2018-11-29T03:39:06.561Z,98950.36
2018-11-29T03:41:18.736Z,98963.69
2018-11-29T03:43:30.936Z,98948.30
2018-11-29T03:45:43.220Z,98946.95
2018-11-29T03:47:55.453Z,98952.09
2018-11-29T03:50:10.229Z,98947.39
2018-11-29T03:52:22.437Z,98946.11
2018-11-29T03:54:34.633Z,98936.98
2018-11-29T03:56:46.789Z,98939.09
2018-11-29T03:58:58.937Z,98934.70
2018-11-29T04:01:11.106Z,98926.16
2018-11-29T04:03:23.307Z,98921.86
2018-11-29T04:05:35.495Z,98919.30
2018-11-29T04:07:47.684Z,98921.07
2018-11-29T04:09:59.876Z,98921.31
2018-11-29T04:12:12.040Z,98926.49
2018-11-29T04:14:24.253Z,98923.49
2018-11-29T04:16:36.438Z,98923.05
2018-11-29T04:18:49.146Z,98918.36
2018-11-29T04:21:00.821Z,98915.34
2018-11-29T04:23:12.994Z,98912.94
2018-11-29T04:25:25.193Z,98914.27
2018-11-29T04:27:37.378Z,98916.33
2018-11-29T04:29:49.540Z,98910.03
2018-11-29T04:32:01.733Z,98905.61
2018-11-29T04:34:13.933Z,98910.66
2018-11-29T04:36:26.149Z,98908.03
2018-11-29T04:38:38.601Z,98910.66
2018-11-29T04:40:50.845Z,98910.36
2018-11-29T04:43:03.041Z,98906.52
2018-11-29T04:45:16.279Z,98909.88
2018-11-29T04:47:28.465Z,98896.08
2018-11-29T04:49:40.643Z,98898.25
2018-11-29T04:51:52.842Z,98894.45
2018-11-29T04:54:05.936Z,98888.99
2018-11-29T04:56:18.088Z,98887.81
2018-11-29T04:58:30.297Z,98878.77
2018-11-29T05:00:42.516Z,98878.22
2018-11-29T05:02:54.726Z,98883.41
2018-11-29T05:05:07.582Z,98879.28
2018-11-29T05:07:19.763Z,98880.15
2018-11-29T05:09:31.988Z,98877.20
2018-11-29T05:11:44.162Z,98879.71
2018-11-29T05:13:56.356Z,98873.63
2018-11-29T05:16:08.591Z,98871.95
2018-11-29T05:18:20.777Z,98880.44
2018-11-29T05:20:32.946Z,98882.96
2018-11-29T05:22:45.150Z,98886.41
2018-11-29T05:24:57.390Z,98887.75
2018-11-29T05:27:09.671Z,98886.91
2018-11-29T05:29:21.863Z,98895.40
2018-11-29T05:31:34.062Z,98891.12
2018-11-29T05:33:46.265Z,98883.46
2018-11-29T05:35:58.488Z,98884.40
2018-11-29T05:38:10.633Z,98893.11
2018-11-29T05:40:22.828Z,98893.54
2018-11-29T05:42:35.019Z,98887.91
2018-11-29T05:44:47.256Z,98892.44
2018-11-29T05:46:59.472Z,98897.58
2018-11-29T05:49:11.645Z,98897.48
2018-11-29T05:51:23.892Z,98901.93
2018-11-29T05:53:36.129Z,98901.88
2018-11-29T05:55:48.356Z,98903.37
2018-11-29T05:58:00.560Z,98911.77
2018-11-29T06:00:13.664Z,98891.08
2018-11-29T06:02:25.835Z,98883.14
2018-11-29T06:04:38.033Z,98882.80
2018-11-29T06:06:50.220Z,98879.09
2018-11-29T06:09:02.625Z,98882.98
2018-11-29T06:11:14.836Z,98884.45
2018-11-29T06:13:27.065Z,98885.78
2018-11-29T06:15:39.244Z,98880.25
2018-11-29T06:17:51.433Z,98879.38
2018-11-29T06:20:03.985Z,98884.45
2018-11-29T06:22:16.171Z,98894.22
2018-11-29T06:24:28.331Z,98899.30
2018-11-29T06:26:40.493Z,98898.86
2018-11-29T06:28:52.769Z,98897.13
2018-11-29T06:31:05.380Z,98894.13
2018-11-29T06:33:17.560Z,98898.38
2018-11-29T06:35:29.729Z,98892.02
2018-11-29T06:37:41.933Z,98888.60
2018-11-29T06:39:54.147Z,98878.48
2018-11-29T06:42:10.223Z,98876.75
2018-11-29T06:44:22.510Z,98879.67
2018-11-29T06:46:34.760Z,98870.12
2018-11-29T06:48:46.920Z,98875.11
2018-11-29T06:51:00.478Z,98864.20
2018-11-29T06:53:18.512Z,98864.55
2018-11-29T06:55:30.739Z,98858.09
2018-11-29T06:57:42.966Z,98858.92
2018-11-29T06:59:55.126Z,98854.33
2018-11-29T07:02:07.430Z,98850.19
2018-11-29T07:04:19.729Z,98839.44
2018-11-29T07:06:31.962Z,98838.88
2018-11-29T07:08:44.174Z,98836.95
2018-11-29T07:10:56.353Z,98837.92
2018-11-29T07:13:08.533Z,98839.16
2018-11-29T07:15:20.804Z,98838.14
2018-11-29T07:17:33.005Z,98839.28
2018-11-29T07:19:45.208Z,98833.42
2018-11-29T07:21:57.422Z,98837.41
2018-11-29T07:24:09.689Z,98837.16
2018-11-29T07:26:21.857Z,98830.88
2018-11-29T07:28:34.116Z,98834.91
2018-11-29T07:30:46.312Z,98834.78
2018-11-29T07:32:58.532Z,98832.56
2018-11-29T07:35:11.869Z,98835.41
2018-11-29T07:37:24.084Z,98844.27
2018-11-29T07:39:36.309Z,98852.25
2018-11-29T07:41:48.644Z,98862.42
2018-11-29T07:44:00.824Z,98864.60
2018-11-29T07:46:13.021Z,98865.55
2018-11-29T07:48:25.180Z,98860.64
2018-11-29T07:50:37.367Z,98857.94
2018-11-29T07:52:49.593Z,98854.25
2018-11-29T07:55:01.765Z,98849.48
2018-11-29T07:57:13.969Z,98843.72
2018-11-29T07:59:26.136Z,98838.91
2018-11-29T08:01:38.329Z,98844.55
2018-11-29T08:03:50.615Z,98840.91
2018-11-29T08:06:02.798Z,98828.10
2018-11-29T08:08:14.981Z,98834.25
2018-11-29T08:10:27.137Z,98833.44
2018-11-29T08:12:39.384Z,98828.47
2018-11-29T08:14:51.610Z,98829.23
2018-11-29T08:17:03.817Z,98829.69
2018-11-29T08:19:16.011Z,98836.71
2018-11-29T08:21:28.225Z,98824.06
2018-11-29T08:23:40.461Z,98817.66
2018-11-29T08:25:52.657Z,98821.67
2018-11-29T08:28:04.854Z,98821.04
2018-11-29T08:30:17.048Z,98818.06
2018-11-29T08:32:29.282Z,98807.61
2018-11-29T08:34:41.432Z,98807.33
2018-11-29T08:36:53.648Z,98804.20
2018-11-29T08:39:08.374Z,98803.55
2018-11-29T08:41:20.537Z,98801.45
2018-11-29T08:43:32.776Z,98801.10
2018-11-29T08:45:44.945Z,98802.17
2018-11-29T08:47:57.135Z,98801.48
2018-11-29T08:50:12.285Z,98799.28
2018-11-29T08:52:24.545Z,98787.34
2018-11-29T08:54:36.735Z,98783.71
2018-11-29T08:56:48.897Z,98774.28
2018-11-29T08:59:01.063Z,98770.76
2018-11-29T09:01:13.225Z,98773.06
2018-11-29T09:03:25.410Z,98762.77
2018-11-29T09:05:37.609Z,98761.84
2018-11-29T09:07:49.838Z,98761.38
2018-11-29T09:10:02.044Z,98758.78
2018-11-29T09:12:14.231Z,98761.73
2018-11-29T09:14:26.406Z,98757.17
2018-11-29T09:16:38.625Z,98766.98
2018-11-29T09:18:50.808Z,98756.47
2018-11-29T09:21:03.041Z,98748.22
2018-11-29T09:23:15.204Z,98751.74
2018-11-29T09:25:27.453Z,98749.16
2018-11-29T09:27:39.638Z,98747.03
2018-11-29T09:29:51.821Z,98745.63
2018-11-29T09:32:05.697Z,98740.41
2018-11-29T09:34:17.808Z,98736.59
2018-11-29T09:36:30.021Z,98737.28
2018-11-29T09:38:42.190Z,98738.42
2018-11-29T09:40:54.423Z,98742.02
2018-11-29T09:43:06.597Z,98736.88
2018-11-29T09:45:19.773Z,98735.34
2018-11-29T09:47:31.965Z,98737.78
2018-11-29T09:49:44.153Z,98740.39
2018-11-29T09:51:56.362Z,98735.67
2018-11-29T09:54:08.635Z,98731.26
2018-11-29T09:56:20.809Z,98739.94
2018-11-29T09:58:33.032Z,98730.93
2018-11-29T10:00:45.229Z,98741.16
2018-11-29T10:03:06.901Z,98743.54
2018-11-29T10:05:19.087Z,98741.53
2018-11-29T10:07:31.291Z,98740.37
2018-11-29T10:09:43.526Z,98736.35
2018-11-29T10:11:55.760Z,98721.27
2018-11-29T10:14:07.967Z,98713.28
2018-11-29T10:16:20.137Z,98711.00
2018-11-29T10:18:32.347Z,98703.47
2018-11-29T10:20:44.573Z,98705.47
2018-11-29T10:22:56.749Z,98698.08
2018-11-29T10:25:10.337Z,98692.28
2018-11-29T10:27:22.548Z,98682.34
2018-11-29T10:29:34.758Z,98678.17
2018-11-29T10:31:46.904Z,98677.66
2018-11-29T10:33:59.111Z,98676.44
2018-11-29T10:36:11.280Z,98679.84
2018-11-29T10:38:23.494Z,98681.77
2018-11-29T10:40:35.682Z,98679.27
2018-11-29T10:42:47.873Z,98682.33
2018-11-29T10:45:00.066Z,98675.48
2018-11-29T10:47:12.278Z,98678.66
2018-11-29T10:49:24.453Z,98673.03
2018-11-29T10:51:36.632Z,98676.66
2018-11-29T10:53:48.880Z,98668.66
2018-11-29T10:56:01.248Z,98652.20
2018-11-29T10:58:13.474Z,98647.88
2018-11-29T11:00:31.390Z,98636.36
2018-11-29T11:02:49.172Z,98640.31
2018-11-29T11:05:01.352Z,98642.49
2018-11-29T11:07:13.577Z,98647.75
2018-11-29T11:09:25.742Z,98642.70
2018-11-29T11:11:37.920Z,98646.08
2018-11-29T11:13:50.162Z,98641.87
2018-11-29T11:16:02.365Z,98633.98
2018-11-29T11:18:15.397Z,98625.55
2018-11-29T11:20:27.578Z,98631.26
2018-11-29T11:22:39.819Z,98631.19
2018-11-29T11:24:52.021Z,98635.40
2018-11-29T11:27:04.248Z,98626.33
2018-11-29T11:29:16.397Z,98618.69
2018-11-29T11:31:31.179Z,98617.30
2018-11-29T11:33:40.833Z,98613.67
2018-11-29T11:35:52.997Z,98613.48
2018-11-29T11:38:05.315Z,98606.87
2018-11-29T11:40:17.570Z,98618.36
2018-11-29T11:42:29.744Z,98624.00
2018-11-29T11:44:41.932Z,98634.69
2018-11-29T11:46:54.136Z,98630.58
2018-11-29T11:49:06.303Z,98626.65
2018-11-29T11:51:18.483Z,98623.25
2018-11-29T11:53:30.663Z,98624.03
2018-11-29T11:55:42.862Z,98624.32
2018-11-29T11:57:55.037Z,98619.09
2018-11-29T12:00:12.321Z,98620.63
2018-11-29T12:02:27.309Z,98616.14
2018-11-29T12:04:36.738Z,98607.92
2018-11-29T12:06:48.915Z,98600.70
2018-11-29T12:09:01.117Z,98609.40
2018-11-29T12:11:13.384Z,98608.89
2018-11-29T12:13:25.903Z,98601.17
2018-11-29T12:15:38.172Z,98593.72
2018-11-29T12:17:50.361Z,98599.95
2018-11-29T12:20:02.604Z,98599.81
2018-11-29T12:22:14.795Z,98603.44
2018-11-29T12:24:27.044Z,98598.52
2018-11-29T12:26:39.259Z,98597.00
2018-11-29T12:28:51.433Z,98596.91
2018-11-29T12:31:03.628Z,98604.69
2018-11-29T12:33:16.785Z,98600.94
2018-11-29T12:35:29.005Z,98587.10
2018-11-29T12:37:41.176Z,98573.31
2018-11-29T12:39:53.342Z,98568.97
2018-11-29T12:42:05.554Z,98556.16
2018-11-29T12:44:17.768Z,98551.11
2018-11-29T12:46:29.980Z,98566.34
2018-11-29T12:48:42.157Z,98564.75
2018-11-29T12:50:54.392Z,98557.45
2018-11-29T12:53:07.129Z,98548.70
2018-11-29T12:55:20.434Z,98533.21
2018-11-29T12:57:32.644Z,98534.97
2018-11-29T12:59:44.837Z,98531.22
2018-11-29T13:01:57.048Z,98526.05
2018-11-29T13:04:09.248Z,98512.31
2018-11-29T13:06:21.489Z,98505.84
2018-11-29T13:08:33.708Z,98503.48
2018-11-29T13:10:45.883Z,98509.12
2018-11-29T13:12:58.102Z,98510.64
2018-11-29T13:15:11.854Z,98515.54
2018-11-29T13:17:24.005Z,98498.95
2018-11-29T13:19:37.085Z,98502.80
2018-11-29T13:21:49.321Z,98500.76
2018-11-29T13:24:01.588Z,98500.47
2018-11-29T13:26:13.786Z,98502.73
2018-11-29T13:28:26.037Z,98503.44
2018-11-29T13:30:38.242Z,98497.77
2018-11-29T13:32:52.784Z,98497.49
2018-11-29T13:35:12.136Z,98489.77
2018-11-29T13:37:25.305Z,98487.34
2018-11-29T13:39:37.463Z,98494.56
2018-11-29T13:41:49.658Z,98494.05
2018-11-29T13:44:01.854Z,98494.19
2018-11-29T13:46:14.088Z,98498.53
2018-11-29T13:48:26.297Z,98492.43
2018-11-29T13:50:39.364Z,98494.93
2018-11-29T13:52:51.472Z,98496.92
2018-11-29T13:55:04.489Z,98497.98
2018-11-29T13:57:16.678Z,98501.31
2018-11-29T13:59:28.880Z,98503.45
2018-11-29T14:01:41.057Z,98489.29
2018-11-29T14:03:53.217Z,98492.34
2018-11-29T14:06:05.924Z,98500.25
2018-11-29T14:08:18.105Z,98501.55
2018-11-29T14:10:30.381Z,98498.78
2018-11-29T14:12:43.152Z,98491.93
2018-11-29T14:14:55.408Z,98490.17
2018-11-29T14:17:07.584Z,98498.31
2018-11-29T14:19:20.092Z,98490.31
2018-11-29T14:21:32.285Z,98489.62
2018-11-29T14:23:44.492Z,98489.80
2018-11-29T14:25:56.694Z,98490.34
2018-11-29T14:28:09.313Z,98487.89
2018-11-29T14:30:24.655Z,98488.11
2018-11-29T14:32:36.851Z,98483.48
2018-11-29T14:34:51.698Z,98479.95
2018-11-29T14:37:01.210Z,98481.11
2018-11-29T14:39:13.401Z,98485.23
2018-11-29T14:41:25.664Z,98473.22
2018-11-29T14:43:37.920Z,98478.20
2018-11-29T14:45:50.129Z,98475.80
2018-11-29T14:48:02.318Z,98477.88
2018-11-29T14:50:16.381Z,98473.45
2018-11-29T14:52:28.578Z,98468.87
2018-11-29T14:54:40.824Z,98464.91
2018-11-29T14:56:53.068Z,98469.38
2018-11-29T14:59:05.374Z,98465.72
2018-11-29T15:01:20.243Z,98467.47
2018-11-29T15:03:32.459Z,98460.69
2018-11-29T15:05:45.181Z,98460.56
2018-11-29T15:07:57.459Z,98461.78
2018-11-29T15:10:09.881Z,98464.66
2018-11-29T15:12:22.104Z,98463.95
2018-11-29T15:14:34.270Z,98455.79
2018-11-29T15:16:46.496Z,98448.44
2018-11-29T15:18:58.726Z,98434.73
2018-11-29T15:21:10.963Z,98424.31
2018-11-29T15:23:23.198Z,98422.06
2018-11-29T15:25:35.404Z,98418.97
2018-11-29T15:27:47.656Z,98404.53
2018-11-29T15:29:59.840Z,98412.80
2018-11-29T15:32:12.041Z,98409.16
2018-11-29T15:34:24.277Z,98408.98
2018-11-29T15:36:36.521Z,98401.42
2018-11-29T15:38:48.718Z,98400.58
2018-11-29T15:41:00.915Z,98390.38
2018-11-29T15:43:13.134Z,98394.83
2018-11-29T15:45:26.131Z,98388.32
2018-11-29T15:47:38.353Z,98388.95
2018-11-29T15:49:50.588Z,98382.25
2018-11-29T15:52:02.909Z,98367.66
2018-11-29T15:54:15.145Z,98368.17
2018-11-29T15:56:27.408Z,98357.59
2018-11-29T15:58:39.705Z,98367.02
2018-11-29T16:00:51.901Z,98380.20
2018-11-29T16:03:06.501Z,98396.08
2018-11-29T16:05:18.769Z,98405.50
2018-11-29T16:07:30.944Z,98407.00
2018-11-29T16:09:43.132Z,98407.71
2018-11-29T16:11:56.969Z,98403.95
2018-11-29T16:14:09.178Z,98409.74
2018-11-29T16:16:21.393Z,98417.63
2018-11-29T16:18:33.600Z,98438.05
2018-11-29T16:20:45.902Z,98445.42
2018-11-29T16:22:58.204Z,98437.46
2018-11-29T16:25:10.945Z,98427.83
2018-11-29T16:27:23.195Z,98423.45
2018-11-29T16:29:35.504Z,98429.25
2018-11-29T16:31:47.757Z,98426.49
2018-11-29T16:34:00.026Z,98433.00
2018-11-29T16:36:12.270Z,98417.91
2018-11-29T16:38:24.520Z,98417.91
2018-11-29T16:40:36.764Z,98431.79
2018-11-29T16:42:49.026Z,98431.30
2018-11-29T16:45:01.334Z,98424.75
2018-11-29T16:47:13.605Z,98408.28
2018-11-29T16:49:25.885Z,98416.88
2018-11-29T16:51:38.094Z,98419.72
2018-11-29T16:53:50.286Z,98412.42
2018-11-29T16:56:02.546Z,98408.75
2018-11-29T16:58:16.863Z,98406.92
2018-11-29T17:00:29.148Z,98406.09
2018-11-29T17:02:41.457Z,98405.47
2018-11-29T17:04:53.716Z,98411.85
2018-11-29T17:07:06.261Z,98403.73
2018-11-29T17:09:18.502Z,98393.27
2018-11-29T17:11:30.720Z,98391.52
2018-11-29T17:13:42.945Z,98392.61
2018-11-29T17:15:55.170Z,98389.35
2018-11-29T17:18:07.396Z,98400.56
2018-11-29T17:20:20.052Z,98394.06
2018-11-29T17:22:32.279Z,98393.52
2018-11-29T17:24:44.445Z,98394.64
2018-11-29T17:26:56.621Z,98395.35
2018-11-29T17:29:08.834Z,98403.09
2018-11-29T17:31:21.044Z,98412.77
2018-11-29T17:33:33.253Z,98406.63
2018-11-29T17:35:45.480Z,98413.16
2018-11-29T17:37:58.714Z,98403.80
2018-11-29T17:40:15.114Z,98405.67
2018-11-29T17:42:27.304Z,98400.64
2018-11-29T17:44:39.529Z,98402.44
2018-11-29T17:46:51.851Z,98403.59
2018-11-29T17:49:04.332Z,98402.26
2018-11-29T17:51:16.609Z,98400.38
2018-11-29T17:53:28.856Z,98394.30
2018-11-29T17:55:41.209Z,98382.69
2018-11-29T17:57:53.414Z,98386.81
2018-11-29T18:00:10.905Z,98392.50
2018-11-29T18:02:23.134Z,98395.33
2018-11-29T18:04:35.378Z,98388.76
2018-11-29T18:06:47.694Z,98387.84
2018-11-29T18:08:59.963Z,98393.66
2018-11-29T18:11:12.220Z,98388.03
2018-11-29T18:13:26.631Z,98399.06
2018-11-29T18:15:38.842Z,98386.36
2018-11-29T18:17:51.117Z,98392.13
2018-11-29T18:20:04.326Z,98395.56
2018-11-29T18:22:16.540Z,98388.70
2018-11-29T18:24:28.769Z,98388.69
2018-11-29T18:26:41.046Z,98384.81
2018-11-29T18:28:53.310Z,98385.53
2018-11-29T18:31:05.578Z,98391.14
2018-11-29T18:33:17.837Z,98395.92
2018-11-29T18:35:30.098Z,98400.55
2018-11-29T18:37:42.587Z,98402.34
2018-11-29T18:39:54.761Z,98400.41
2018-11-29T18:42:07.031Z,98397.61
2018-11-29T18:44:19.224Z,98395.82
2018-11-29T18:46:31.437Z,98395.10
2018-11-29T18:48:43.767Z,98396.43
2018-11-29T18:50:55.980Z,98389.27
2018-11-29T18:53:08.287Z,98396.62
2018-11-29T18:55:21.796Z,98396.80
2018-11-29T18:57:34.024Z,98387.06
2018-11-29T18:59:46.336Z,98392.03
2018-11-29T19:01:58.615Z,98399.66
2018-11-29T19:04:10.817Z,98397.53
2018-11-29T19:06:23.018Z,98398.97
2018-11-29T19:08:35.261Z,98395.78
2018-11-29T19:10:47.549Z,98405.98
2018-11-29T19:13:03.291Z,98403.86
2018-11-29T19:15:15.545Z,98400.83
2018-11-29T19:17:27.802Z,98401.13
2018-11-29T19:19:40.068Z,98409.20
2018-11-29T19:21:52.265Z,98410.78
2018-11-29T19:24:05.137Z,98404.83
2018-11-29T19:26:17.421Z,98406.84
2018-11-29T19:28:29.602Z,98403.36
2018-11-29T19:30:41.913Z,98403.27
2018-11-29T19:32:57.636Z,98395.54
2018-11-29T19:35:10.638Z,98393.08
2018-11-29T19:37:22.912Z,98395.66
2018-11-29T19:39:35.258Z,98389.94
2018-11-29T19:41:47.509Z,98394.02
2018-11-29T19:43:59.837Z,98387.50
2018-11-29T19:46:12.083Z,98392.62
2018-11-29T19:48:24.323Z,98390.42
2018-11-29T19:50:36.593Z,98396.94
2018-11-29T19:52:50.397Z,98391.44
2018-11-29T19:55:02.612Z,98381.08
2018-11-29T19:57:14.979Z,98385.32
2018-11-29T19:59:27.228Z,98387.89
2018-11-29T20:01:39.535Z,98383.03
2018-11-29T20:03:51.896Z,98385.60
2018-11-29T20:06:04.639Z,98381.01
2018-11-29T20:08:16.883Z,98382.30
2018-11-29T20:10:29.116Z,98379.05
2018-11-29T20:12:41.374Z,98377.31
2018-11-29T20:14:53.652Z,98383.69
2018-11-29T20:17:05.925Z,98378.95
2018-11-29T20:19:18.208Z,98380.91
2018-11-29T20:21:30.509Z,98382.09
2018-11-29T20:23:42.734Z,98387.66
2018-11-29T20:25:55.017Z,98378.61
2018-11-29T20:28:07.373Z,98381.22
2018-11-29T20:30:20.606Z,98387.89
2018-11-29T20:32:32.890Z,98394.61
2018-11-29T20:34:45.179Z,98389.22
2018-11-29T20:36:57.378Z,98390.50
2018-11-29T20:39:09.959Z,98394.72
2018-11-29T20:41:22.170Z,98405.67
2018-11-29T20:43:34.501Z,98412.27
2018-11-29T20:45:49.290Z,98409.14
2018-11-29T20:48:04.643Z,98412.20
2018-11-29T20:50:18.507Z,98413.45
2018-11-29T20:52:30.788Z,98410.47
2018-11-29T20:54:43.025Z,98401.88
2018-11-29T20:56:55.318Z,98399.05
2018-11-29T20:59:07.592Z,98408.23
2018-11-29T21:01:19.829Z,98410.80
2018-11-29T21:03:32.873Z,98407.33
2018-11-29T21:05:44.389Z,98412.98
2018-11-29T21:07:58.170Z,98404.41
2018-11-29T21:10:13.207Z,98414.31
2018-11-29T21:12:25.418Z,98408.71
2018-11-29T21:14:37.667Z,98415.22
2018-11-29T21:16:49.913Z,98411.73
2018-11-29T21:19:02.180Z,98406.20
2018-11-29T21:21:14.451Z,98413.48
2018-11-29T21:23:26.690Z,98414.19
2018-11-29T21:25:38.913Z,98410.02
2018-11-29T21:27:51.137Z,98405.00
2018-11-29T21:30:05.003Z,98410.92
2018-11-29T21:32:17.212Z,98408.70
2018-11-29T21:34:29.413Z,98406.28
2018-11-29T21:36:41.754Z,98400.24
2018-11-29T21:38:53.966Z,98404.36
2018-11-29T21:41:06.244Z,98395.06
2018-11-29T21:43:18.467Z,98390.56
2018-11-29T21:45:30.704Z,98387.92
2018-11-29T21:47:42.933Z,98384.23
2018-11-29T21:49:55.135Z,98384.42
2018-11-29T21:52:07.364Z,98387.09
2018-11-29T21:54:19.592Z,98383.45
2018-11-29T21:56:31.836Z,98390.27
2018-11-29T21:58:44.044Z,98389.88
2018-11-29T22:00:56.461Z,98391.59
2018-11-29T22:03:08.680Z,98381.27
2018-11-29T22:05:20.962Z,98383.26
2018-11-29T22:07:33.189Z,98384.87
2018-11-29T22:09:45.393Z,98376.70
2018-11-29T22:11:57.656Z,98382.36
2018-11-29T22:14:09.822Z,98383.73
2018-11-29T22:16:22.149Z,98385.63
2018-11-29T22:18:34.404Z,98393.22
2018-11-29T22:20:47.712Z,98391.06
2018-11-29T22:22:59.936Z,98384.56
2018-11-29T22:25:12.224Z,98387.73
2018-11-29T22:27:24.499Z,98387.08
2018-11-29T22:29:36.729Z,98388.36
2018-11-29T22:31:48.985Z,98383.41
2018-11-29T22:34:01.175Z,98375.70
2018-11-29T22:36:14.260Z,98376.95
2018-11-29T22:38:25.596Z,98376.77
2018-11-29T22:40:37.816Z,98374.89
2018-11-29T22:42:50.104Z,98367.36
2018-11-29T22:45:02.344Z,98366.83
2018-11-29T22:47:14.553Z,98384.60
2018-11-29T22:49:26.773Z,98377.25
2018-11-29T22:51:39.013Z,98376.95
2018-11-29T22:53:51.217Z,98376.27
2018-11-29T22:56:03.494Z,98364.23
2018-11-29T22:58:15.688Z,98358.48
2018-11-29T23:00:33.687Z,98358.31
2018-11-29T23:02:46.786Z,98357.70
2018-11-29T23:04:59.182Z,98352.63
2018-11-29T23:07:11.297Z,98353.02
2018-11-29T23:09:23.528Z,98354.95
2018-11-29T23:11:35.972Z,98351.01
2018-11-29T23:13:49.905Z,98358.44
2018-11-29T23:16:02.189Z,98360.76
2018-11-29T23:18:14.382Z,98353.17
2018-11-29T23:20:26.705Z,98354.17
2018-11-29T23:22:39.494Z,98351.44
2018-11-29T23:24:51.706Z,98359.55
2018-11-29T23:27:03.919Z,98355.36
2018-11-29T23:29:16.093Z,98357.87
2018-11-29T23:31:28.312Z,98349.06
2018-11-29T23:33:40.509Z,98348.23
2018-11-29T23:35:52.685Z,98352.82
2018-11-29T23:38:05.052Z,98348.06
2018-11-29T23:40:17.538Z,98346.94
2018-11-29T23:42:29.706Z,98347.10
2018-11-29T23:44:41.855Z,98352.15
2018-11-29T23:46:54.039Z,98347.04
2018-11-29T23:49:06.357Z,98341.96
2018-11-29T23:51:18.571Z,98337.17
2018-11-29T23:53:30.823Z,98335.56
2018-11-29T23:55:43.031Z,98339.03
2018-11-29T23:57:55.281Z,98337.91
